METAR Data
IDs: Format: Raw Decoded Include TAF

Data at: 0107 UTC 10 Dec 2022

METAR for:KAOH (Lima/Allen Cnty, OH, US)
Text:KAOH 100105Z AUTO 06011KT 8SM BKN009 OVC032 03/01 A3016 RMK AO2 T00280006
Temperature: 2.8°C ( 37°F)
Dewpoint: 0.6°C ( 33°F) [RH = 85%]
Pressure (altimeter):30.16 inches Hg (1021.4 mb)
Winds:from the ENE (60 degrees) at 13 MPH (11 knots; 5.7 m/s)
Visibility: 8 sm ( 13 km)
Ceiling:900 feet AGL
Clouds: broken clouds at 900 feet AGL, overcast cloud deck at 3200 feet AGL
QC Flag:automated observation with no human augmentation